Oak Grove, Michigan
Current Conditions -  °F | °C
As of 1:55 AM on Monday 24 Nov 2014 (Local Time) from KOZW Reporting Station
Moderate Rain Moderate Rain  
Wind Chill: 51°   Ceiling: 700
Heat Index: 51°   Visibility: 5mi
Dew Point: 51°   Wind: 13mph
Humidity: 97%   Direction: 160°SSE
Pressure: 29.07"   Gusts: NA
Location:  42.7°N, 83.91°W
Report Text: KOZW 240655Z AUTO 16011KT 5SM RA BKN007 OVC012 11/10 A2907 RMK AO2 T01070103
Loading
Personal Weather Stations






























Interactive Weather Map New forecast layout! Learn more

10-Day Weather Forecast

Advertisements
Track Severe Weather on mobile